Главная страница
METAR-TAF:

METAR-TAF

Аэропорты :

Sachs Harbour, Северо-Западные Территории, Канада

широта: 72-00N, долгота: 125-17W, высота над уровнем моря: 86 м

Текущие метеонаблюдения

Эта сводка был подготовлена 4 часа и 13 минут назад, в 23:00 UTC
Ветер 28 Узел от северо-северо-восточный
Температура -5°C
Влажность 79%
Давление 1012 hPa
Видимость: 24.1 км
небольшая облачность на высоте 15000 фута
Рассеянная облачность на высоте 23000 фута
поземка

METAR: CYSY 262300Z 03028KT 15SM DRSN FEW150 BKN230 M05/M08 A2987 RMK AC2CI3 LAST OBS/NEXT 271300Z SLP126

Время: 21:13 (03:13 UTC)

Прогноз

Эта сводка был подготовлена 8 часа и 35 минут назад, в 18:38 UTC
Прогноз действительный с 26-го 19 UTC до 26-го 23 UTC
Ветер 15 Узел от восточно-северо-восточный
Видимость: 10 км
небольшая облачность на высоте 4000 фута
Рассеянная облачность на высоте 23000 фута

TAF: CYSY 261838Z 2619/2623 06015KT P6SM FEW040 BKN230 RMK NXT FCST WILL BE ISSUED AT 271445Z

Метеонаблюдения и прогнозы для более 4000 аэропортов (сводки METAR и TAF).

Имеющиеся станции представлены на карте желтыми и красными точками.

Чтобы увидеть название станции, наведите на нее мышь.

Затем щелкните, чтобы увидеть метеонаблюдения и метеопрогнозы.

Управление картой: чтобы увеличить масштаб, щелкните зеленые кнопки с черным крестиком; чтобы уменьшить масштаб, щелкните зеленую кнопку с тире; для просмотра соседних карт щелкайте зеленые стрелки.


METAR-TAF: